createdAt,value
2022-10-06T00:01:10.059Z,70.59
2022-10-06T00:06:16.081Z,70.27
2022-10-06T00:11:20.242Z,69.84
2022-10-06T00:16:25.720Z,69.02
2022-10-06T00:21:30.229Z,70.38
2022-10-06T00:26:35.060Z,70.89
2022-10-06T00:31:40.591Z,70.18
2022-10-06T00:36:45.256Z,71.03
2022-10-06T00:41:49.423Z,71.10
2022-10-06T00:46:56.461Z,70.26
2022-10-06T00:52:06.773Z,69.65
2022-10-06T00:57:11.798Z,70.98
2022-10-06T01:02:23.450Z,71.43
2022-10-06T01:07:30.074Z,71.18
2022-10-06T01:12:36.268Z,70.52
2022-10-06T01:17:47.245Z,71.81
2022-10-06T01:22:58.168Z,72.17
2022-10-06T01:28:05.582Z,72.57
2022-10-06T01:33:10.678Z,71.96
2022-10-06T01:38:17.130Z,72.40
2022-10-06T01:43:22.800Z,71.15
2022-10-06T01:48:27.998Z,71.63
2022-10-06T01:53:36.932Z,72.76
2022-10-06T01:58:42.363Z,71.42
2022-10-06T02:03:47.729Z,71.85
2022-10-06T02:08:53.139Z,73.12
2022-10-06T02:13:57.427Z,72.90
2022-10-06T02:19:01.693Z,72.71
2022-10-06T02:24:07.316Z,72.52
2022-10-06T02:29:11.286Z,71.96
2022-10-06T02:34:15.485Z,71.89
2022-10-06T02:39:21.070Z,72.15
2022-10-06T02:44:25.875Z,71.68
2022-10-06T02:49:34.641Z,71.02
2022-10-06T02:54:40.128Z,70.73
2022-10-06T02:59:44.329Z,71.57
2022-10-06T03:04:48.480Z,71.49
2022-10-06T03:09:55.437Z,71.18
2022-10-06T03:15:01.806Z,71.93
2022-10-06T03:20:07.136Z,73.00
2022-10-06T03:25:13.067Z,72.83
2022-10-06T03:30:18.194Z,73.03
2022-10-06T03:35:22.336Z,74.29
2022-10-06T03:40:30.128Z,75.54
2022-10-06T03:45:34.411Z,75.12
2022-10-06T03:50:38.620Z,74.48
2022-10-06T03:55:44.058Z,73.50
2022-10-06T04:00:49.687Z,74.69
2022-10-06T04:05:55.193Z,75.07
2022-10-06T04:11:08.070Z,74.63
2022-10-06T04:16:17.210Z,73.70
2022-10-06T04:21:22.087Z,73.55
2022-10-06T04:26:30.596Z,75.26
2022-10-06T04:31:37.539Z,75.11
2022-10-06T04:36:43.802Z,73.63
2022-10-06T04:41:54.411Z,72.58
2022-10-06T04:47:02.833Z,73.16
2022-10-06T04:52:07.364Z,74.73
2022-10-06T04:57:15.579Z,75.65
2022-10-06T05:02:21.461Z,76.30
2022-10-06T05:07:29.717Z,74.13
2022-10-06T05:12:36.526Z,73.78
2022-10-06T05:17:41.148Z,74.38
2022-10-06T05:22:46.160Z,73.42
2022-10-06T05:27:51.883Z,75.53
2022-10-06T05:32:55.998Z,74.91
2022-10-06T05:38:01.557Z,74.75
2022-10-06T05:43:07.679Z,74.04
2022-10-06T05:48:12.070Z,73.19
2022-10-06T05:53:16.800Z,71.81
2022-10-06T05:58:22.266Z,70.97
2022-10-06T06:03:26.649Z,70.86
2022-10-06T06:08:32.031Z,70.92
2022-10-06T06:13:41.521Z,69.46
2022-10-06T06:18:51.041Z,68.46
2022-10-06T06:23:56.291Z,69.17
2022-10-06T06:29:04.064Z,67.41
2022-10-06T06:34:12.499Z,66.71
2022-10-06T06:39:20.468Z,65.52
2022-10-06T06:44:28.167Z,63.46
2022-10-06T06:49:43.102Z,61.91
2022-10-06T06:54:50.232Z,55.34
2022-10-06T07:00:02.780Z,52.60
2022-10-06T07:05:13.381Z,52.76
2022-10-06T07:10:17.655Z,51.50
2022-10-06T07:15:40.694Z,50.44
2022-10-06T07:21:03.529Z,48.38
2022-10-06T07:26:08.431Z,46.67
2022-10-06T07:31:14.016Z,44.90
2022-10-06T07:36:18.849Z,44.26
2022-10-06T07:41:23.083Z,42.33
2022-10-06T07:46:33.962Z,40.14
2022-10-06T07:51:51.004Z,39.19
2022-10-06T07:56:57.121Z,37.07
2022-10-06T08:02:02.487Z,36.45
2022-10-06T08:07:10.591Z,34.96
2022-10-06T08:12:31.131Z,34.50
2022-10-06T08:17:37.667Z,32.77
2022-10-06T08:22:42.972Z,31.55
2022-10-06T08:27:52.655Z,31.54
2022-10-06T08:33:00.242Z,32.57
2022-10-06T08:38:04.234Z,33.19
2022-10-06T08:43:17.008Z,31.77
2022-10-06T08:48:30.260Z,31.36
2022-10-06T08:53:40.412Z,30.52
2022-10-06T08:58:53.748Z,31.05
2022-10-06T09:04:02.401Z,30.32
2022-10-06T09:09:18.382Z,30.63
2022-10-06T09:14:29.567Z,30.96
2022-10-06T09:19:42.831Z,30.00
2022-10-06T09:24:50.361Z,29.91
2022-10-06T09:29:54.914Z,30.04
2022-10-06T09:35:00.873Z,30.48
2022-10-06T09:40:29.526Z,30.06
2022-10-06T09:45:33.512Z,29.23
2022-10-06T09:50:38.896Z,29.23
2022-10-06T09:55:46.545Z,28.52
2022-10-06T10:00:55.668Z,27.82
2022-10-06T10:06:05.343Z,27.69
2022-10-06T10:11:40.276Z,28.59
2022-10-06T10:16:45.557Z,29.29
2022-10-06T10:21:59.027Z,28.98
2022-10-06T10:27:13.311Z,29.19
2022-10-06T10:32:21.451Z,29.40
2022-10-06T10:37:32.769Z,28.07
2022-10-06T10:42:45.540Z,27.90
2022-10-06T10:47:50.725Z,27.41
2022-10-06T10:53:01.909Z,28.73
2022-10-06T10:58:13.021Z,28.99
2022-10-06T11:03:17.075Z,28.05
2022-10-06T11:08:30.688Z,27.91
2022-10-06T11:13:40.914Z,27.72
2022-10-06T11:18:55.851Z,28.22
2022-10-06T11:24:18.614Z,28.47
2022-10-06T11:29:35.874Z,28.60
2022-10-06T11:34:41.192Z,28.90
2022-10-06T11:39:54.472Z,28.41
2022-10-06T11:45:05.239Z,27.71
2022-10-06T11:50:37.268Z,27.10
2022-10-06T11:55:48.370Z,26.64
2022-10-06T12:00:54.826Z,27.78
2022-10-06T12:06:03.252Z,28.35
2022-10-06T12:11:46.516Z,27.97
2022-10-06T12:17:18.280Z,28.56
2022-10-06T12:22:30.767Z,27.96
2022-10-06T12:27:56.718Z,27.38
2022-10-06T12:33:05.782Z,28.13
2022-10-06T12:38:43.294Z,28.18
2022-10-06T12:43:55.247Z,28.28
2022-10-06T12:49:26.840Z,28.79
2022-10-06T12:54:37.111Z,29.01
2022-10-06T12:59:42.397Z,29.58
2022-10-06T13:04:52.346Z,29.57
2022-10-06T13:10:18.396Z,26.80
2022-10-06T13:15:25.284Z,25.74
2022-10-06T13:20:41.521Z,25.79
2022-10-06T13:25:49.548Z,25.64
2022-10-06T13:30:55.286Z,25.57
2022-10-06T13:36:01.224Z,25.27
2022-10-06T13:41:24.700Z,25.21
2022-10-06T13:46:32.433Z,26.02
2022-10-06T13:51:37.976Z,26.82
2022-10-06T13:56:42.033Z,27.21
2022-10-06T14:01:46.182Z,27.30
2022-10-06T14:06:54.482Z,27.05
2022-10-06T14:12:05.383Z,27.72
2022-10-06T14:17:22.615Z,28.51
2022-10-06T14:22:37.542Z,28.22
2022-10-06T14:27:41.537Z,28.15
2022-10-06T14:32:47.932Z,28.19
2022-10-06T14:37:53.636Z,28.58
2022-10-06T14:42:57.670Z,29.69
2022-10-06T14:48:01.757Z,30.27
2022-10-06T14:53:10.687Z,29.50
2022-10-06T14:58:15.422Z,29.69
2022-10-06T15:03:19.566Z,30.24
2022-10-06T15:08:25.208Z,30.62
2022-10-06T15:13:32.101Z,30.59
2022-10-06T15:18:39.501Z,31.43
2022-10-06T15:23:49.568Z,32.68
2022-10-06T15:29:03.213Z,35.41
2022-10-06T15:34:09.520Z,35.55
2022-10-06T15:39:17.951Z,37.42
2022-10-06T15:44:26.031Z,36.21
2022-10-06T15:49:32.866Z,37.15
2022-10-06T15:54:40.803Z,42.13
2022-10-06T15:59:45.614Z,41.49
2022-10-06T16:05:18.846Z,43.34
2022-10-06T16:10:24.513Z,45.39
2022-10-06T16:15:28.465Z,47.36
2022-10-06T16:20:32.448Z,47.02
2022-10-06T16:25:37.757Z,49.15
2022-10-06T16:30:42.291Z,50.06
2022-10-06T16:35:55.062Z,49.87
2022-10-06T16:41:02.942Z,50.87
2022-10-06T16:46:09.525Z,51.62
2022-10-06T16:51:19.351Z,52.26
2022-10-06T16:56:27.154Z,51.98
2022-10-06T17:01:32.878Z,51.41
2022-10-06T17:06:39.408Z,53.76
2022-10-06T17:11:46.936Z,55.12
2022-10-06T17:16:53.640Z,54.89
2022-10-06T17:22:00.182Z,55.13
2022-10-06T17:27:06.412Z,54.54
2022-10-06T17:32:10.416Z,54.68
2022-10-06T17:37:14.380Z,55.97
2022-10-06T17:42:19.736Z,56.80
2022-10-06T17:47:23.682Z,54.96
2022-10-06T17:52:27.758Z,55.38
2022-10-06T17:57:35.219Z,57.55
2022-10-06T18:02:40.610Z,57.31
2022-10-06T18:07:45.128Z,57.26
2022-10-06T18:12:51.893Z,57.13
2022-10-06T18:17:56.059Z,57.52
2022-10-06T18:23:00.622Z,57.68
2022-10-06T18:28:08.787Z,57.10
2022-10-06T18:36:09.541Z,57.69
2022-10-06T18:38:40.402Z,58.32
2022-10-06T18:43:54.159Z,58.36
2022-10-06T18:49:00.089Z,58.34
2022-10-06T18:54:06.483Z,58.89
2022-10-06T18:59:14.001Z,58.64
2022-10-06T19:04:19.720Z,59.70
2022-10-06T19:09:26.379Z,59.29
2022-10-06T19:14:35.841Z,59.02
2022-10-06T19:19:39.746Z,59.67
2022-10-06T19:24:47.902Z,59.80
2022-10-06T19:29:56.909Z,59.41
2022-10-06T19:35:01.256Z,59.96
2022-10-06T19:40:08.245Z,60.22
2022-10-06T19:45:14.416Z,60.69
2022-10-06T19:50:19.331Z,60.83
2022-10-06T19:55:24.565Z,59.93
2022-10-06T20:00:31.369Z,60.39
2022-10-06T20:05:38.510Z,60.50
2022-10-06T20:10:42.468Z,60.66
2022-10-06T20:15:48.128Z,59.43
2022-10-06T20:20:58.539Z,60.01
2022-10-06T20:26:14.175Z,60.81
2022-10-06T20:31:24.229Z,60.87
2022-10-06T20:36:29.864Z,61.23
2022-10-06T20:41:34.879Z,61.37
2022-10-06T20:46:40.915Z,61.53
2022-10-06T20:51:50.508Z,61.52
2022-10-06T20:56:56.128Z,59.83
2022-10-06T21:02:01.478Z,59.97
2022-10-06T21:07:07.546Z,59.66
2022-10-06T21:12:16.827Z,60.64
2022-10-06T21:17:22.993Z,60.63
2022-10-06T21:22:31.493Z,60.75
2022-10-06T21:27:36.033Z,61.26
2022-10-06T21:32:42.625Z,61.35
2022-10-06T21:37:49.177Z,61.14
2022-10-06T21:42:54.395Z,61.32
2022-10-06T21:47:59.729Z,62.56
2022-10-06T21:53:03.712Z,63.39
2022-10-06T21:58:07.777Z,63.07
2022-10-06T22:03:14.476Z,62.31
2022-10-06T22:08:18.509Z,62.05
2022-10-06T22:13:22.422Z,62.80
2022-10-06T22:18:27.877Z,62.99
2022-10-06T22:23:31.895Z,62.06
2022-10-06T22:28:36.260Z,61.15
2022-10-06T22:33:42.380Z,62.01
2022-10-06T22:38:46.611Z,61.67
2022-10-06T22:43:53.331Z,60.92
2022-10-06T22:48:58.811Z,61.99
2022-10-06T22:54:03.252Z,62.57
2022-10-06T22:59:07.191Z,63.14
2022-10-06T23:04:12.615Z,62.02
2022-10-06T23:09:16.736Z,61.09
2022-10-06T23:14:20.752Z,61.81
2022-10-06T23:19:27.180Z,61.14
2022-10-06T23:24:32.054Z,61.13
2022-10-06T23:29:36.321Z,60.52
2022-10-06T23:34:41.774Z,61.84
2022-10-06T23:39:45.770Z,62.26
2022-10-06T23:44:49.708Z,62.81
2022-10-06T23:49:55.006Z,61.21
2022-10-06T23:54:58.938Z,62.23
